createdAt,value
2017-10-12T00:01:54.846Z,3.70
2017-10-12T00:04:21.445Z,3.83
2017-10-12T00:06:48.076Z,4.13
2017-10-12T00:09:14.668Z,4.10
2017-10-12T00:11:41.260Z,4.33
2017-10-12T00:14:07.893Z,3.77
2017-10-12T00:16:34.494Z,3.93
2017-10-12T00:19:01.088Z,3.83
2017-10-12T00:21:27.720Z,3.90
2017-10-12T00:23:54.316Z,3.90
2017-10-12T00:26:20.965Z,4.53
2017-10-12T00:28:47.570Z,3.30
2017-10-12T00:31:14.157Z,3.70
2017-10-12T00:33:40.784Z,4.00
2017-10-12T00:36:07.380Z,4.00
2017-10-12T00:38:34.020Z,3.47
2017-10-12T00:41:00.620Z,3.73
2017-10-12T00:43:27.209Z,4.03
2017-10-12T00:45:53.838Z,3.43
2017-10-12T00:48:20.464Z,4.23
2017-10-12T00:50:47.056Z,4.77
2017-10-12T00:53:13.665Z,4.53
2017-10-12T00:55:40.296Z,4.20
2017-10-12T00:58:06.922Z,4.73
2017-10-12T01:00:33.563Z,4.17
2017-10-12T01:03:00.153Z,4.53
2017-10-12T01:05:26.757Z,5.07
2017-10-12T01:07:53.406Z,5.50
2017-10-12T01:10:19.992Z,5.23
2017-10-12T01:12:46.656Z,4.97
2017-10-12T01:15:13.247Z,4.77
2017-10-12T01:17:39.865Z,5.20
2017-10-12T01:20:06.464Z,4.93
2017-10-12T01:22:33.105Z,4.97
2017-10-12T01:24:59.703Z,4.23
2017-10-12T01:27:26.300Z,4.60
2017-10-12T01:29:52.928Z,4.40
2017-10-12T01:32:19.529Z,3.73
2017-10-12T01:34:46.125Z,4.30
2017-10-12T01:37:12.750Z,3.23
2017-10-12T01:39:39.366Z,3.90
2017-10-12T01:42:05.988Z,3.90
2017-10-12T01:44:32.589Z,4.13
2017-10-12T01:46:59.218Z,3.83
2017-10-12T01:49:25.829Z,4.07
2017-10-12T01:51:52.423Z,4.00
2017-10-12T01:54:19.049Z,3.70
2017-10-12T01:56:45.649Z,3.57
2017-10-12T01:59:12.288Z,4.03
2017-10-12T02:01:38.894Z,4.50
2017-10-12T02:04:05.517Z,3.77
2017-10-12T02:06:32.113Z,4.07
2017-10-12T02:08:58.757Z,4.40
2017-10-12T02:11:25.389Z,3.87
2017-10-12T02:13:52.190Z,4.80
2017-10-12T02:16:18.779Z,3.87
2017-10-12T02:18:45.389Z,4.40
2017-10-12T02:21:11.988Z,4.37
2017-10-12T02:23:38.640Z,4.80
2017-10-12T02:26:05.233Z,4.77
2017-10-12T02:28:31.833Z,5.07
2017-10-12T02:30:58.481Z,7.67
2017-10-12T02:33:25.092Z,8.33
2017-10-12T02:35:51.693Z,13.50
2017-10-12T02:38:18.317Z,16.07
2017-10-12T02:40:44.957Z,12.20
2017-10-12T02:43:11.550Z,8.47
2017-10-12T02:45:38.140Z,6.83
2017-10-12T02:48:04.777Z,5.80
2017-10-12T02:50:31.381Z,5.13
2017-10-12T02:52:57.990Z,5.30
2017-10-12T02:55:24.609Z,5.20
2017-10-12T02:57:51.233Z,5.37
2017-10-12T03:00:17.825Z,5.73
2017-10-12T03:02:44.465Z,5.37
2017-10-12T03:05:11.093Z,4.77
2017-10-12T03:07:37.694Z,4.90
2017-10-12T03:10:04.289Z,4.40
2017-10-12T03:12:30.931Z,4.00
2017-10-12T03:14:57.519Z,4.33
2017-10-12T03:17:24.163Z,4.20
2017-10-12T03:19:50.772Z,3.80
2017-10-12T03:22:17.399Z,3.87
2017-10-12T03:24:44.050Z,4.40
2017-10-12T03:27:10.648Z,3.90
2017-10-12T03:29:37.237Z,4.00
2017-10-12T03:32:03.869Z,3.70
2017-10-12T03:34:30.478Z,4.27
2017-10-12T03:36:57.096Z,3.73
2017-10-12T03:39:23.697Z,3.60
2017-10-12T03:41:50.337Z,4.03
2017-10-12T03:44:16.944Z,4.00
2017-10-12T03:46:43.544Z,3.97
2017-10-12T03:49:10.167Z,4.37
2017-10-12T03:51:36.770Z,4.60
2017-10-12T03:54:03.408Z,3.77
2017-10-12T03:56:30.008Z,4.00
2017-10-12T03:58:56.698Z,4.00
2017-10-12T04:01:23.285Z,4.13
2017-10-12T04:03:49.880Z,4.70
2017-10-12T04:06:16.513Z,4.07
2017-10-12T04:08:43.105Z,4.80
2017-10-12T04:11:09.716Z,5.37
2017-10-12T04:13:36.321Z,4.57
2017-10-12T04:16:02.942Z,5.10
2017-10-12T04:18:29.539Z,5.20
2017-10-12T04:20:56.180Z,5.10
2017-10-12T04:23:22.777Z,5.53
2017-10-12T04:25:49.381Z,5.40
2017-10-12T04:28:16.009Z,5.30
2017-10-12T04:30:42.626Z,4.53
2017-10-12T04:33:09.263Z,5.20
2017-10-12T04:35:35.857Z,4.90
2017-10-12T04:38:02.472Z,4.40
2017-10-12T04:40:29.079Z,4.87
2017-10-12T04:42:55.690Z,4.63
2017-10-12T04:45:22.341Z,4.80
2017-10-12T04:47:48.941Z,4.33
2017-10-12T04:50:15.541Z,4.80
2017-10-12T04:52:42.161Z,4.37
2017-10-12T04:55:08.757Z,4.23
2017-10-12T04:57:35.380Z,4.20
2017-10-12T05:00:02.034Z,4.00
2017-10-12T05:02:28.631Z,4.83
2017-10-12T05:04:55.245Z,5.00
2017-10-12T05:07:21.878Z,3.80
2017-10-12T05:09:48.486Z,3.63
2017-10-12T05:12:15.090Z,4.90
2017-10-12T05:14:41.716Z,4.90
2017-10-12T05:17:08.305Z,5.37
2017-10-12T05:19:34.911Z,4.37
2017-10-12T05:22:01.559Z,4.23
2017-10-12T05:24:28.158Z,4.20
2017-10-12T05:26:54.753Z,4.30
2017-10-12T05:29:21.362Z,4.47
2017-10-12T05:31:48.065Z,4.93
2017-10-12T05:34:14.693Z,5.53
2017-10-12T05:36:41.501Z,4.40
2017-10-12T05:39:08.086Z,5.00
2017-10-12T05:41:34.700Z,5.60
2017-10-12T05:44:01.420Z,5.60
2017-10-12T05:46:28.012Z,5.33
2017-10-12T05:48:54.641Z,5.80
2017-10-12T05:51:21.239Z,4.83
2017-10-12T05:53:47.849Z,5.10
2017-10-12T05:56:14.455Z,4.87
2017-10-12T05:58:41.077Z,4.73
2017-10-12T06:01:07.673Z,4.40
2017-10-12T06:03:34.297Z,5.00
2017-10-12T06:06:00.905Z,4.83
2017-10-12T06:08:27.502Z,4.80
2017-10-12T06:10:54.122Z,4.43
2017-10-12T06:13:20.718Z,5.20
2017-10-12T06:15:47.341Z,5.20
2017-10-12T06:18:13.949Z,5.00
2017-10-12T06:20:40.565Z,4.80
2017-10-12T06:23:07.167Z,5.60
2017-10-12T06:25:33.832Z,5.13
2017-10-12T06:28:00.442Z,5.20
2017-10-12T06:30:27.068Z,6.23
2017-10-12T06:32:53.707Z,5.40
2017-10-12T06:35:20.309Z,5.40
2017-10-12T06:37:46.953Z,5.77
2017-10-12T06:40:13.558Z,4.83
2017-10-12T06:42:40.193Z,5.90
2017-10-12T06:45:06.843Z,5.40
2017-10-12T06:47:33.457Z,4.70
2017-10-12T06:50:00.053Z,5.23
2017-10-12T06:52:26.690Z,5.47
2017-10-12T06:54:53.277Z,5.90
2017-10-12T06:57:19.883Z,5.30
2017-10-12T06:59:46.544Z,5.33
2017-10-12T07:02:14.601Z,5.50
2017-10-12T07:04:42.311Z,6.03
2017-10-12T07:07:09.021Z,5.00
2017-10-12T07:09:35.678Z,5.10
2017-10-12T07:12:02.296Z,5.20
2017-10-12T07:14:28.933Z,4.90
2017-10-12T07:16:55.569Z,6.00
2017-10-12T07:19:22.212Z,4.30
2017-10-12T07:21:48.861Z,4.77
2017-10-12T07:24:15.520Z,5.17
2017-10-12T07:26:42.229Z,4.90
2017-10-12T07:29:08.882Z,4.70
2017-10-12T07:31:35.541Z,5.87
2017-10-12T07:34:02.198Z,6.00
2017-10-12T07:36:28.896Z,6.50
2017-10-12T07:38:55.506Z,4.20
2017-10-12T07:41:22.114Z,4.57
2017-10-12T07:43:48.745Z,4.37
2017-10-12T07:46:15.360Z,4.20
2017-10-12T07:48:41.963Z,5.57
2017-10-12T07:51:08.586Z,4.60
2017-10-12T07:53:35.258Z,4.70
2017-10-12T07:56:01.895Z,4.70
2017-10-12T07:58:28.510Z,5.10
2017-10-12T08:00:55.122Z,5.00
2017-10-12T08:03:21.806Z,4.47
2017-10-12T08:05:48.396Z,5.13
2017-10-12T08:08:15.008Z,4.73
2017-10-12T08:10:41.635Z,5.80
2017-10-12T08:13:09.156Z,5.23
2017-10-12T08:15:35.781Z,5.47
2017-10-12T08:18:02.404Z,5.10
2017-10-12T08:20:29.024Z,4.90
2017-10-12T08:22:55.642Z,6.00
2017-10-12T08:25:22.367Z,5.97
2017-10-12T08:27:48.962Z,5.77
2017-10-12T08:30:15.565Z,5.80
2017-10-12T08:32:42.189Z,5.43
2017-10-12T08:35:08.788Z,5.60
2017-10-12T08:37:35.409Z,6.70
2017-10-12T08:40:02.004Z,5.50
2017-10-12T08:42:28.603Z,5.40
2017-10-12T08:44:55.212Z,7.43
2017-10-12T08:47:21.817Z,5.90
2017-10-12T08:49:48.452Z,5.50
2017-10-12T08:52:15.070Z,4.70
2017-10-12T08:54:41.675Z,4.73
2017-10-12T08:57:08.302Z,5.00
2017-10-12T08:59:34.896Z,4.83
2017-10-12T09:02:01.530Z,4.97
2017-10-12T09:04:28.175Z,4.70
2017-10-12T09:06:54.837Z,5.30
2017-10-12T09:09:21.473Z,4.73
2017-10-12T09:11:48.105Z,4.77
2017-10-12T09:14:14.718Z,4.90
2017-10-12T09:16:41.337Z,4.70
2017-10-12T09:19:07.935Z,5.10
2017-10-12T09:21:34.561Z,5.47
2017-10-12T09:24:01.193Z,5.67
2017-10-12T09:26:27.816Z,6.00
2017-10-12T09:28:54.541Z,6.20
2017-10-12T09:31:21.137Z,5.83
2017-10-12T09:33:47.760Z,5.47
2017-10-12T09:36:14.397Z,5.03
2017-10-12T09:38:41.003Z,5.77
2017-10-12T09:41:07.609Z,5.07
2017-10-12T09:43:34.237Z,5.97
2017-10-12T09:46:00.841Z,5.33
2017-10-12T09:48:27.437Z,5.37
2017-10-12T09:50:54.057Z,5.17
2017-10-12T09:53:20.658Z,4.70
2017-10-12T09:55:47.277Z,5.00
2017-10-12T09:58:13.883Z,5.20
2017-10-12T10:00:40.505Z,4.70
2017-10-12T10:03:07.107Z,5.07
2017-10-12T10:05:33.729Z,5.50
2017-10-12T10:08:00.352Z,5.00
2017-10-12T10:10:26.949Z,4.87
2017-10-12T10:12:53.544Z,4.93
2017-10-12T10:15:20.177Z,4.43
2017-10-12T10:20:26.418Z,4.70
2017-10-12T10:22:53.009Z,4.73
2017-10-12T10:25:19.624Z,4.50
2017-10-12T10:27:46.227Z,3.80
2017-10-12T10:30:12.844Z,4.00
2017-10-12T10:32:39.516Z,4.30
2017-10-12T10:35:06.136Z,4.30
2017-10-12T10:37:32.741Z,3.50
2017-10-12T10:39:59.345Z,3.93
2017-10-12T10:42:25.982Z,3.93
2017-10-12T10:44:52.585Z,4.30
2017-10-12T10:47:19.191Z,3.50
2017-10-12T10:49:45.824Z,3.83
2017-10-12T10:52:12.467Z,3.70
2017-10-12T10:54:39.074Z,3.20
2017-10-12T10:57:05.695Z,3.30
2017-10-12T10:59:32.433Z,3.40
2017-10-12T11:01:59.067Z,3.17
2017-10-12T11:04:25.666Z,3.40
2017-10-12T11:06:52.293Z,3.43
2017-10-12T11:09:18.902Z,4.13
2017-10-12T11:11:45.501Z,3.90
2017-10-12T11:14:12.133Z,4.00
2017-10-12T11:16:38.724Z,3.30
2017-10-12T11:19:05.361Z,3.30
2017-10-12T11:21:31.957Z,3.70
2017-10-12T11:23:58.595Z,3.70
2017-10-12T11:26:25.194Z,3.90
2017-10-12T11:28:51.859Z,3.30
2017-10-12T11:31:18.453Z,3.37
2017-10-12T11:33:45.069Z,3.30
2017-10-12T11:36:11.712Z,3.87
2017-10-12T11:38:38.348Z,3.77
2017-10-12T11:41:04.993Z,3.33
2017-10-12T11:43:31.618Z,3.20
2017-10-12T11:45:58.232Z,4.00
2017-10-12T11:48:24.881Z,3.30
2017-10-12T11:50:51.494Z,3.13
2017-10-12T11:53:18.107Z,2.77
2017-10-12T11:55:44.726Z,3.37
2017-10-12T11:58:11.338Z,3.10
2017-10-12T12:00:38.013Z,3.07
2017-10-12T12:03:04.621Z,2.90
2017-10-12T12:05:31.229Z,2.70
2017-10-12T12:07:57.908Z,2.90
2017-10-12T12:10:24.518Z,2.80
2017-10-12T12:12:51.260Z,2.83
2017-10-12T12:15:17.900Z,2.70
2017-10-12T12:17:44.542Z,2.73
2017-10-12T12:20:11.162Z,3.67
2017-10-12T12:22:37.769Z,2.60
2017-10-12T12:25:04.409Z,3.10
2017-10-12T12:27:31.020Z,2.43
2017-10-12T12:29:57.644Z,2.83
2017-10-12T12:32:24.237Z,3.17
2017-10-12T12:34:50.862Z,2.67
2017-10-12T12:37:17.466Z,2.50
2017-10-12T12:39:44.085Z,2.63
2017-10-12T12:42:10.692Z,2.97
2017-10-12T12:44:37.309Z,2.60
2017-10-12T12:47:03.953Z,2.73
2017-10-12T12:49:30.544Z,2.83
2017-10-12T12:51:57.185Z,3.00
2017-10-12T12:54:23.798Z,2.87
2017-10-12T12:56:50.405Z,2.57
2017-10-12T12:59:17.042Z,2.40
2017-10-12T13:01:43.644Z,2.30
2017-10-12T13:04:10.269Z,2.80
2017-10-12T13:06:36.897Z,2.10
2017-10-12T13:09:03.520Z,2.30
2017-10-12T13:11:31.159Z,2.50
2017-10-12T13:13:57.936Z,1.90
2017-10-12T13:16:24.573Z,2.30
2017-10-12T13:18:51.203Z,1.90
2017-10-12T13:21:17.840Z,2.27
2017-10-12T13:23:44.465Z,2.20
2017-10-12T13:26:11.111Z,2.00
2017-10-12T13:28:37.753Z,2.23
2017-10-12T13:31:04.710Z,1.90
2017-10-12T13:33:31.322Z,2.60
2017-10-12T13:36:16.066Z,2.33
2017-10-12T13:38:42.696Z,2.07
2017-10-12T13:41:09.326Z,2.40
2017-10-12T13:43:35.921Z,1.80
2017-10-12T13:46:02.522Z,2.17
2017-10-12T13:48:29.145Z,2.30
2017-10-12T13:50:55.751Z,2.20
2017-10-12T13:53:22.370Z,2.27
2017-10-12T13:55:48.965Z,2.63
2017-10-12T13:58:15.582Z,2.17
2017-10-12T14:00:42.314Z,2.27
2017-10-12T14:03:08.930Z,2.20
2017-10-12T14:05:35.535Z,2.00
2017-10-12T14:08:02.149Z,2.20
2017-10-12T14:10:28.773Z,1.97
2017-10-12T14:12:55.411Z,1.70
2017-10-12T14:15:22.009Z,2.00
2017-10-12T14:17:48.664Z,2.07
2017-10-12T14:20:15.293Z,2.20
2017-10-12T14:22:41.921Z,2.20
2017-10-12T14:25:08.531Z,1.80
2017-10-12T14:27:35.138Z,2.20
2017-10-12T14:30:01.773Z,2.40
2017-10-12T14:32:28.374Z,2.30
2017-10-12T14:34:55.120Z,2.43
2017-10-12T14:37:21.723Z,2.53
2017-10-12T14:39:48.338Z,1.70
2017-10-12T14:42:14.998Z,1.93
2017-10-12T14:44:41.606Z,2.10
2017-10-12T14:47:08.227Z,1.87
2017-10-12T14:49:34.871Z,2.57
2017-10-12T14:52:01.504Z,2.80
2017-10-12T14:54:28.183Z,2.60
2017-10-12T14:56:54.827Z,2.80
2017-10-12T14:59:21.454Z,2.40
2017-10-12T15:01:48.098Z,2.17
2017-10-12T15:04:14.751Z,2.43
2017-10-12T15:06:41.356Z,2.33
2017-10-12T15:09:08.013Z,2.47
2017-10-12T15:11:34.638Z,2.47
2017-10-12T15:14:01.328Z,2.47
2017-10-12T15:16:28.011Z,2.30
2017-10-12T15:18:54.614Z,2.13
2017-10-12T15:21:21.250Z,2.00
2017-10-12T15:23:47.905Z,2.50
2017-10-12T15:26:14.563Z,2.30
2017-10-12T15:28:41.191Z,1.97
2017-10-12T15:31:08.132Z,2.20
2017-10-12T15:33:34.892Z,2.30
2017-10-12T15:36:01.601Z,2.37
2017-10-12T15:38:28.241Z,2.00
2017-10-12T15:40:54.955Z,2.50
2017-10-12T15:43:21.634Z,2.90
2017-10-12T15:45:48.295Z,2.10
2017-10-12T15:48:14.975Z,2.80
2017-10-12T15:50:41.585Z,2.80
2017-10-12T15:53:08.224Z,2.67
2017-10-12T15:55:34.861Z,2.40
2017-10-12T15:58:01.534Z,2.63
2017-10-12T16:00:28.145Z,2.20
2017-10-12T16:02:54.891Z,2.60
2017-10-12T16:05:21.601Z,2.80
2017-10-12T16:07:48.273Z,2.87
2017-10-12T16:10:15.036Z,2.67
2017-10-12T16:12:41.731Z,2.10
2017-10-12T16:15:08.435Z,3.00
2017-10-12T16:17:35.381Z,3.33
2017-10-12T16:20:02.152Z,2.73
2017-10-12T16:22:58.469Z,2.40
2017-10-12T16:27:22.802Z,2.80
2017-10-12T16:29:49.472Z,2.87
2017-10-12T16:32:16.129Z,2.23
2017-10-12T16:34:42.791Z,2.00
2017-10-12T16:37:09.434Z,2.57
2017-10-12T16:39:36.185Z,2.80
2017-10-12T16:42:02.910Z,2.80
2017-10-12T16:44:29.582Z,2.83
2017-10-12T16:46:56.238Z,3.57
2017-10-12T16:49:22.846Z,2.77
2017-10-12T16:51:49.518Z,3.07
2017-10-12T16:54:16.133Z,2.93
2017-10-12T16:56:42.788Z,3.47
2017-10-12T16:59:09.441Z,3.10
2017-10-12T17:01:36.060Z,2.60
2017-10-12T17:04:02.677Z,2.87
2017-10-12T17:06:29.362Z,2.60
2017-10-12T17:08:55.985Z,3.40
2017-10-12T17:11:22.601Z,2.83
2017-10-12T17:13:49.238Z,3.03
2017-10-12T17:16:15.858Z,3.60
2017-10-12T17:18:42.482Z,2.83
2017-10-12T17:21:09.166Z,2.83
2017-10-12T17:26:02.410Z,3.10
2017-10-12T17:28:29.098Z,3.17
2017-10-12T17:33:22.400Z,3.37
2017-10-12T17:35:49.021Z,3.73
2017-10-12T17:38:15.675Z,3.47
2017-10-12T17:40:42.307Z,4.00
2017-10-12T17:43:08.969Z,3.63
2017-10-12T17:45:35.594Z,3.50
2017-10-12T17:48:02.226Z,4.37
2017-10-12T17:50:28.879Z,5.00
2017-10-12T17:52:55.496Z,4.50
2017-10-12T17:55:22.113Z,4.33
2017-10-12T17:57:48.739Z,3.70
2017-10-12T18:00:15.414Z,3.53
2017-10-12T18:02:42.054Z,3.80
2017-10-12T18:05:08.683Z,3.60
2017-10-12T18:07:35.309Z,4.00
2017-10-12T18:10:01.913Z,3.10
2017-10-12T18:12:28.602Z,4.13
2017-10-12T18:14:55.283Z,3.30
2017-10-12T18:17:21.925Z,3.43
2017-10-12T18:19:48.527Z,3.60
2017-10-12T18:22:15.209Z,3.43
2017-10-12T18:24:41.876Z,3.67
2017-10-12T18:27:08.497Z,3.60
2017-10-12T18:32:01.799Z,3.70
2017-10-12T18:34:28.476Z,2.93
2017-10-12T18:36:55.089Z,3.63
2017-10-12T18:39:21.687Z,3.57
2017-10-12T18:41:48.314Z,3.90
2017-10-12T18:44:14.936Z,3.97
2017-10-12T18:46:41.640Z,4.27
2017-10-12T18:49:08.254Z,4.07
2017-10-12T18:51:34.867Z,3.67
2017-10-12T18:54:01.496Z,3.70
2017-10-12T18:56:28.097Z,3.13
2017-10-12T18:58:54.726Z,3.80
2017-10-12T19:01:21.329Z,3.63
2017-10-12T19:03:47.929Z,4.43
2017-10-12T19:06:14.578Z,3.70
2017-10-12T19:08:41.324Z,4.07
2017-10-12T19:11:07.993Z,3.90
2017-10-12T19:13:34.613Z,4.27
2017-10-12T19:16:01.235Z,4.40
2017-10-12T19:18:27.837Z,4.10
2017-10-12T19:20:54.482Z,4.80
2017-10-12T19:23:21.100Z,3.53
2017-10-12T19:25:47.788Z,3.70
2017-10-12T19:28:44.236Z,3.90
2017-10-12T19:30:41.082Z,4.50
2017-10-12T19:35:34.333Z,4.60
2017-10-12T19:38:01.178Z,4.40
2017-10-12T19:40:27.842Z,4.30
2017-10-12T19:42:54.485Z,3.70
2017-10-12T19:45:21.110Z,4.37
2017-10-12T19:47:48.006Z,4.40
2017-10-12T19:50:14.669Z,4.10
2017-10-12T19:52:41.270Z,4.37
2017-10-12T19:55:07.930Z,4.50
2017-10-12T19:57:34.559Z,4.70
2017-10-12T20:00:01.185Z,4.70
2017-10-12T20:02:27.869Z,4.80
2017-10-12T20:04:54.485Z,4.83
2017-10-12T20:07:21.177Z,4.47
2017-10-12T20:09:47.892Z,4.63
2017-10-12T20:12:14.509Z,4.67
2017-10-12T20:14:41.129Z,5.23
2017-10-12T20:17:07.746Z,4.53
2017-10-12T20:19:34.394Z,5.10
2017-10-12T20:22:01.006Z,4.90
2017-10-12T20:24:27.631Z,5.87
2017-10-12T20:26:54.276Z,5.83
2017-10-12T20:29:35.991Z,5.97
2017-10-12T20:31:47.670Z,5.53
2017-10-12T20:34:14.270Z,5.53
2017-10-12T20:36:40.895Z,6.40
2017-10-12T20:41:34.164Z,5.13
2017-10-12T20:44:00.814Z,5.60
2017-10-12T20:46:27.462Z,5.90
2017-10-12T20:48:54.086Z,6.10
2017-10-12T20:51:20.736Z,6.10
2017-10-12T20:53:47.386Z,5.73
2017-10-12T20:56:14.062Z,5.77
2017-10-12T20:58:40.717Z,5.80
2017-10-12T21:01:07.380Z,6.00
2017-10-12T21:03:34.000Z,6.27
2017-10-12T21:06:00.620Z,5.93
2017-10-12T21:08:27.260Z,5.87
2017-10-12T21:10:53.850Z,6.23
2017-10-12T21:13:20.475Z,5.50
2017-10-12T21:15:47.092Z,6.10
2017-10-12T21:18:13.763Z,5.43
2017-10-12T21:20:40.369Z,5.90
2017-10-12T21:23:06.970Z,6.20
2017-10-12T21:25:33.642Z,5.77
2017-10-12T21:28:00.275Z,7.63
2017-10-12T21:30:26.935Z,6.13
2017-10-12T21:32:53.639Z,6.00
2017-10-12T21:35:20.344Z,6.20
2017-10-12T21:37:46.960Z,6.67
2017-10-12T21:40:13.618Z,6.40
2017-10-12T21:42:40.283Z,5.80
2017-10-12T21:45:06.947Z,6.33
2017-10-12T21:47:33.606Z,5.40
2017-10-12T21:50:00.260Z,6.50
2017-10-12T21:52:26.908Z,6.37
2017-10-12T21:54:53.565Z,6.73
2017-10-12T21:57:20.183Z,5.60
2017-10-12T21:59:46.821Z,6.97
2017-10-12T22:02:13.442Z,7.50
2017-10-12T22:04:40.098Z,6.30
2017-10-12T22:07:06.743Z,6.60
2017-10-12T22:09:33.349Z,6.10
2017-10-12T22:11:59.957Z,6.77
2017-10-12T22:14:26.595Z,7.40
2017-10-12T22:16:53.205Z,6.60
2017-10-12T22:19:19.809Z,6.70
2017-10-12T22:21:46.449Z,6.60
2017-10-12T22:24:13.071Z,6.60
2017-10-12T22:26:39.685Z,5.60
2017-10-12T22:29:06.297Z,6.10
2017-10-12T22:31:32.935Z,6.20
2017-10-12T22:33:59.780Z,6.77
2017-10-12T22:36:26.417Z,6.80
2017-10-12T22:38:53.033Z,6.20
2017-10-12T22:41:19.630Z,7.20
2017-10-12T22:43:46.262Z,7.27
2017-10-12T22:46:12.905Z,6.67
2017-10-12T22:48:39.502Z,6.30
2017-10-12T22:51:06.109Z,6.60
2017-10-12T22:53:32.738Z,6.53
2017-10-12T22:55:59.362Z,6.47
2017-10-12T22:58:25.989Z,6.10
2017-10-12T23:00:52.590Z,6.70
2017-10-12T23:03:19.221Z,6.47
2017-10-12T23:05:45.846Z,6.90
2017-10-12T23:08:12.502Z,7.10
2017-10-12T23:10:39.219Z,7.27
2017-10-12T23:13:05.849Z,7.07
2017-10-12T23:15:32.478Z,6.90
2017-10-12T23:17:59.117Z,5.83
2017-10-12T23:20:25.728Z,7.00
2017-10-12T23:22:52.341Z,7.30
2017-10-12T23:25:18.954Z,6.20
2017-10-12T23:27:45.577Z,7.17
2017-10-12T23:30:12.200Z,6.23
2017-10-12T23:32:38.850Z,6.73
2017-10-12T23:35:05.470Z,6.60
2017-10-12T23:37:32.070Z,6.90
2017-10-12T23:39:58.693Z,6.30
2017-10-12T23:42:25.300Z,6.30
2017-10-12T23:44:51.939Z,6.47
2017-10-12T23:47:18.542Z,6.83
2017-10-12T23:49:45.149Z,6.53
2017-10-12T23:52:11.783Z,6.80
2017-10-12T23:54:38.385Z,6.50
2017-10-12T23:57:04.981Z,6.67
2017-10-12T23:59:31.605Z,6.60
